Time;durP1;ratioP1;P1;durP2;ratioP2;P2;SDS_P1;SDS_P2;PMS_P1;PMS_P2;Temp;Humidity;BMP_temperature;BMP_pressure;BME280_temperature;BME280_humidity;BME280_pressure;Samples;Min_cycle;Max_cycle;Signal;HPM_P1;HPM_P2
2022/08/20 00:00:45;;;;;;;15.65;12.68;;;;;;;;;;5075242;28;20027;-68
2022/08/20 00:03:16;;;;;;;15.02;12.98;;;;;;;;;;5075260;28;20024;-68
2022/08/20 00:05:48;;;;;;;14.77;13.07;;;;;;;;;;5075382;28;20029;-66
2022/08/20 00:08:14;;;;;;;15.88;14.15;;;;;;;;;;5075097;28;20040;-66
2022/08/20 00:10:43;;;;;;;15.95;13.65;;;;;;;;;;5075020;28;20020;-66
2022/08/20 00:13:11;;;;;;;14.82;12.63;;;;;;;;;;5075120;28;20024;-66
2022/08/20 00:15:37;;;;;;;15.05;12.88;;;;;;;;;;5075058;28;20020;-66
2022/08/20 00:18:04;;;;;;;15.55;12.60;;;;;;;;;;5075017;28;20099;-66
2022/08/20 00:20:36;;;;;;;16.75;12.73;;;;;;;;;;5074878;28;20028;-66
2022/08/20 00:23:02;;;;;;;15.73;12.38;;;;;;;;;;5074854;28;20028;-65
2022/08/20 00:25:28;;;;;;;12.77;11.43;;;;;;;;;;5074609;28;20020;-66
2022/08/20 00:27:55;;;;;;;12.43;11.05;;;;;;;;;;5074761;28;20024;-69
2022/08/20 00:30:21;;;;;;;12.65;11.23;;;;;;;;;;5074839;28;20025;-66
2022/08/20 00:32:53;;;;;;;12.43;11.13;;;;;;;;;;5074674;28;20039;-67
2022/08/20 00:35:23;;;;;;;13.98;11.43;;;;;;;;;;5074651;28;20020;-66
2022/08/20 00:37:48;;;;;;;15.48;11.05;;;;;;;;;;5074580;28;20032;-67
2022/08/20 00:40:17;;;;;;;12.93;11.52;;;;;;;;;;5074353;28;20036;-67
2022/08/20 00:42:49;;;;;;;12.18;10.35;;;;;;;;;;5074444;28;20434;-67
2022/08/20 00:45:16;;;;;;;12.50;10.88;;;;;;;;;;5074566;28;20155;-67
2022/08/20 00:47:42;;;;;;;12.23;10.93;;;;;;;;;;5074427;28;20020;-67
2022/08/20 00:50:11;;;;;;;12.88;10.45;;;;;;;;;;5074269;28;20025;-67
2022/08/20 00:52:38;;;;;;;11.63;10.07;;;;;;;;;;5072843;28;20052;-67
2022/08/20 00:55:06;;;;;;;12.05;10.07;;;;;;;;;;5074057;28;20032;-67
2022/08/20 00:57:39;;;;;;;12.75;10.95;;;;;;;;;;5074114;28;20123;-67
2022/08/20 01:00:10;;;;;;;14.23;11.52;;;;;;;;;;5074229;28;20104;-67
2022/08/20 01:02:36;;;;;;;10.70;9.10;;;;;;;;;;5074201;28;20021;-67
2022/08/20 01:05:04;;;;;;;12.23;9.13;;;;;;;;;;5073685;28;20082;-67
2022/08/20 01:07:36;;;;;;;11.65;10.40;;;;;;;;;;5073221;28;20029;-67
2022/08/20 01:10:25;;;;;;;11.60;10.40;;;;;;;;;;5073946;28;20379;-67
2022/08/20 01:12:52;;;;;;;11.80;9.80;;;;;;;;;;5073728;28;20016;-67
2022/08/20 01:15:20;;;;;;;13.05;10.45;;;;;;;;;;5073805;28;20020;-67
2022/08/20 01:17:49;;;;;;;14.88;9.77;;;;;;;;;;5073876;28;20426;-68
2022/08/20 01:20:22;;;;;;;12.43;9.65;;;;;;;;;;5073725;28;20038;-67
2022/08/20 01:25:49;;;;;;;;;;;;;;;;;;5074160;28;20051;-68
2022/08/20 01:28:18;;;;;;;11.50;9.35;;;;;;;;;;5073519;28;19995;-68
2022/08/20 01:30:44;;;;;;;13.00;10.47;;;;;;;;;;5073558;28;20029;-68
2022/08/20 01:33:10;;;;;;;11.77;9.30;;;;;;;;;;5073453;28;20074;-68
2022/08/20 01:35:39;;;;;;;11.20;9.98;;;;;;;;;;5073455;28;20032;-67
2022/08/20 01:38:05;;;;;;;14.07;10.88;;;;;;;;;;5073171;28;20042;-67
2022/08/20 01:40:54;;;;;;;13.20;11.80;;;;;;;;;;5073347;28;20464;-68
2022/08/20 01:43:20;;;;;;;13.88;11.20;;;;;;;;;;5073120;28;20033;-68
2022/08/20 01:45:45;;;;;;;11.40;10.18;;;;;;;;;;5073280;28;20021;-67
2022/08/20 01:48:12;;;;;;;11.32;10.20;;;;;;;;;;5073241;28;20437;-67
2022/08/20 01:50:43;;;;;;;12.68;10.43;;;;;;;;;;5073132;28;20025;-68
2022/08/20 01:53:17;;;;;;;13.10;11.02;;;;;;;;;;5072870;28;20075;-67
2022/08/20 01:55:43;;;;;;;14.70;12.13;;;;;;;;;;5073178;28;20024;-67
2022/08/20 01:58:09;;;;;;;16.42;12.80;;;;;;;;;;5072980;28;20467;-68
2022/08/20 02:00:35;;;;;;;18.25;13.70;;;;;;;;;;5072982;28;20077;-68
2022/08/20 02:03:02;;;;;;;17.80;13.77;;;;;;;;;;5073093;28;20052;-68
2022/08/20 02:05:28;;;;;;;18.40;14.73;;;;;;;;;;5072505;28;20107;-67
2022/08/20 02:07:54;;;;;;;19.90;15.18;;;;;;;;;;5072870;28;20031;-68
2022/08/20 02:10:21;;;;;;;16.02;12.95;;;;;;;;;;5072982;28;20020;-68
2022/08/20 02:12:47;;;;;;;17.77;14.15;;;;;;;;;;5072886;28;20025;-67
2022/08/20 02:15:13;;;;;;;21.13;14.55;;;;;;;;;;5072892;28;20111;-68
2022/08/20 02:17:40;;;;;;;19.58;13.07;;;;;;;;;;5072769;28;20086;-68
2022/08/20 02:20:14;;;;;;;18.30;14.13;;;;;;;;;;5072581;28;20070;-68
2022/08/20 02:22:49;;;;;;;18.48;14.60;;;;;;;;;;5072831;28;20099;-68
2022/08/20 02:25:15;;;;;;;22.25;15.30;;;;;;;;;;5072696;28;20039;-68
2022/08/20 02:27:44;;;;;;;19.65;14.75;;;;;;;;;;5072715;28;20052;-68
2022/08/20 02:30:26;;;;;;;23.83;15.75;;;;;;;;;;5072927;28;20036;-68
2022/08/20 02:32:51;;;;;;;20.85;15.48;;;;;;;;;;5072631;28;20028;-68
2022/08/20 02:35:17;;;;;;;20.25;15.00;;;;;;;;;;5072493;28;20028;-67
2022/08/20 02:37:44;;;;;;;21.65;15.60;;;;;;;;;;5072779;28;20024;-68
2022/08/20 02:40:14;;;;;;;23.27;16.80;;;;;;;;;;5072716;28;20048;-67
2022/08/20 02:42:42;;;;;;;;;;;;;;;;;;5072778;28;20419;-67
2022/08/20 02:45:10;;;;;;;21.00;14.82;;;;;;;;;;5072547;28;19920;-68
2022/08/20 02:47:36;;;;;;;25.10;16.77;;;;;;;;;;5072388;28;20037;-68
2022/08/20 02:50:03;;;;;;;23.80;16.88;;;;;;;;;;5072363;28;20386;-68
2022/08/20 02:52:29;;;;;;;25.17;17.05;;;;;;;;;;5072306;28;20057;-68
2022/08/20 02:54:54;;;;;;;22.40;16.85;;;;;;;;;;5072456;28;20036;-67
2022/08/20 02:57:20;;;;;;;23.52;17.42;;;;;;;;;;5072650;28;20029;-67
2022/08/20 02:59:51;;;;;;;24.35;18.20;;;;;;;;;;5072430;28;20032;-68
2022/08/20 03:02:17;;;;;;;24.15;15.90;;;;;;;;;;5072412;28;20079;-68
2022/08/20 03:04:43;;;;;;;23.00;16.08;;;;;;;;;;5072046;28;20203;-68
2022/08/20 03:07:10;;;;;;;24.95;17.23;;;;;;;;;;5072238;28;20031;-67
2022/08/20 03:09:36;;;;;;;27.40;18.00;;;;;;;;;;5072275;28;20518;-68
2022/08/20 03:12:03;;;;;;;23.52;17.35;;;;;;;;;;5072233;28;20086;-68
2022/08/20 03:14:29;;;;;;;23.02;16.45;;;;;;;;;;5072232;28;20029;-68
2022/08/20 03:16:54;;;;;;;25.45;17.73;;;;;;;;;;5074853;28;20108;-68
2022/08/20 03:19:21;;;;;;;22.65;16.40;;;;;;;;;;5075829;28;20024;-68
2022/08/20 03:21:47;;;;;;;25.73;17.40;;;;;;;;;;5076014;28;20025;-68
2022/08/20 03:24:13;;;;;;;24.77;17.60;;;;;;;;;;5075918;28;20035;-68
2022/08/20 03:26:38;;;;;;;28.73;17.63;;;;;;;;;;5075883;28;20535;-68
2022/08/20 03:29:04;;;;;;;24.33;18.80;;;;;;;;;;5076003;28;20020;-68
2022/08/20 03:31:29;;;;;;;29.70;17.60;;;;;;;;;;5075859;28;20020;-68
2022/08/20 03:33:55;;;;;;;26.10;17.45;;;;;;;;;;5075615;28;20400;-68
2022/08/20 03:36:22;;;;;;;28.98;18.90;;;;;;;;;;5075823;28;20035;-68
2022/08/20 03:38:48;;;;;;;24.10;17.52;;;;;;;;;;5075698;28;20467;-68
2022/08/20 03:41:14;;;;;;;22.40;16.92;;;;;;;;;;5075462;28;20085;-67
2022/08/20 03:43:40;;;;;;;23.60;17.55;;;;;;;;;;5075695;28;20024;-68
2022/08/20 03:46:06;;;;;;;23.90;15.50;;;;;;;;;;5075528;28;20059;-68
2022/08/20 03:48:32;;;;;;;24.55;17.50;;;;;;;;;;5074102;28;20036;-67
2022/08/20 03:50:59;;;;;;;21.58;17.25;;;;;;;;;;5075489;28;20033;-68
2022/08/20 03:53:28;;;;;;;24.02;17.27;;;;;;;;;;5075264;28;20094;-67
2022/08/20 03:55:54;;;;;;;21.42;15.90;;;;;;;;;;5075413;28;20028;-67
2022/08/20 03:58:20;;;;;;;23.38;15.43;;;;;;;;;;5075307;28;20051;-67
2022/08/20 04:00:49;;;;;;;24.42;16.90;;;;;;;;;;5075452;28;20029;-68
2022/08/20 04:03:16;;;;;;;22.45;14.93;;;;;;;;;;5075024;28;20486;-68
2022/08/20 04:05:42;;;;;;;24.40;18.50;;;;;;;;;;5075413;28;20082;-68
2022/08/20 04:08:25;;;;;;;24.83;16.40;;;;;;;;;;5075248;28;20116;-68
2022/08/20 04:10:52;;;;;;;21.02;15.02;;;;;;;;;;5075153;28;20479;-67
2022/08/20 04:13:20;;;;;;;19.77;14.18;;;;;;;;;;5075088;28;20116;-67
2022/08/20 04:15:47;;;;;;;18.40;14.35;;;;;;;;;;5075067;28;20029;-67
2022/08/20 04:18:13;;;;;;;20.98;14.00;;;;;;;;;;5074825;28;20035;-67
2022/08/20 04:20:41;;;;;;;21.15;15.13;;;;;;;;;;5075066;28;20502;-67
2022/08/20 04:23:08;;;;;;;20.33;15.60;;;;;;;;;;5075137;28;20077;-68
2022/08/20 04:25:35;;;;;;;19.17;14.27;;;;;;;;;;5074869;28;20499;-67
2022/08/20 04:28:04;;;;;;;19.25;14.90;;;;;;;;;;5074358;28;20029;-67
2022/08/20 04:30:31;;;;;;;17.20;13.50;;;;;;;;;;5074631;28;20032;-67
2022/08/20 04:32:58;;;;;;;17.70;15.18;;;;;;;;;;5074571;28;20029;-66
2022/08/20 04:35:24;;;;;;;18.83;13.88;;;;;;;;;;5074722;28;20430;-67
2022/08/20 04:38:00;;;;;;;16.77;12.75;;;;;;;;;;5074650;28;20383;-67
2022/08/20 04:43:10;;;;;;;15.88;11.95;;;;;;;;;;5074734;28;20035;-67
2022/08/20 04:45:36;;;;;;;18.15;13.85;;;;;;;;;;5074224;28;20446;-68
2022/08/20 04:48:04;;;;;;;16.83;12.38;;;;;;;;;;5074301;28;20425;-68
2022/08/20 04:50:35;;;;;;;16.98;13.95;;;;;;;;;;5074485;28;20079;-67
2022/08/20 04:53:08;;;;;;;19.77;14.43;;;;;;;;;;5074240;28;20044;-67
2022/08/20 04:55:37;;;;;;;18.58;13.77;;;;;;;;;;5074314;28;20033;-67
2022/08/20 04:58:10;;;;;;;19.40;14.63;;;;;;;;;;5074314;28;20083;-67
2022/08/20 05:00:37;;;;;;;17.92;14.02;;;;;;;;;;5074002;28;20028;-68
2022/08/20 05:03:05;;;;;;;20.15;14.85;;;;;;;;;;5074254;28;20529;-67
2022/08/20 05:05:33;;;;;;;17.52;13.52;;;;;;;;;;5074026;28;20121;-67
2022/08/20 05:08:00;;;;;;;20.17;14.32;;;;;;;;;;5073977;28;20020;-68
2022/08/20 05:10:26;;;;;;;18.58;14.77;;;;;;;;;;5073994;28;20056;-68
2022/08/20 05:12:52;;;;;;;18.48;13.75;;;;;;;;;;5073758;28;20032;-67
2022/08/20 05:15:18;;;;;;;18.35;13.82;;;;;;;;;;5073699;28;20056;-68
2022/08/20 05:17:43;;;;;;;18.20;12.85;;;;;;;;;;5073761;28;20495;-66
2022/08/20 05:20:12;;;;;;;17.83;13.18;;;;;;;;;;5073813;28;20029;-67
2022/08/20 05:22:38;;;;;;;15.37;12.37;;;;;;;;;;5073656;28;20046;-68
2022/08/20 05:25:04;;;;;;;15.75;12.10;;;;;;;;;;5073725;28;20464;-68
2022/08/20 05:27:30;;;;;;;15.73;13.00;;;;;;;;;;5073745;28;20025;-68
2022/08/20 05:30:01;;;;;;;13.70;12.13;;;;;;;;;;5073426;28;20070;-68
2022/08/20 05:32:27;;;;;;;16.33;11.93;;;;;;;;;;5073475;28;20059;-67
2022/08/20 05:34:53;;;;;;;13.10;10.35;;;;;;;;;;5073456;28;20040;-68
2022/08/20 05:37:19;;;;;;;15.45;12.00;;;;;;;;;;5073404;28;20050;-68
2022/08/20 05:39:45;;;;;;;15.38;11.15;;;;;;;;;;5072875;28;20470;-68
2022/08/20 05:42:10;;;;;;;11.30;9.88;;;;;;;;;;5073227;28;20042;-68
2022/08/20 05:44:36;;;;;;;12.50;9.73;;;;;;;;;;5073015;28;20024;-67
2022/08/20 05:47:03;;;;;;;13.00;9.07;;;;;;;;;;5073310;28;20100;-68
2022/08/20 05:49:29;;;;;;;10.15;8.88;;;;;;;;;;5072271;28;20069;-66
2022/08/20 05:51:55;;;;;;;11.40;8.35;;;;;;;;;;5071978;28;20361;-67
2022/08/20 05:54:22;;;;;;;12.13;8.75;;;;;;;;;;5073244;28;20039;-67
2022/08/20 05:56:49;;;;;;;11.18;8.07;;;;;;;;;;5073092;28;20047;-68
2022/08/20 05:59:14;;;;;;;9.90;8.27;;;;;;;;;;5072977;28;20017;-67
2022/08/20 06:01:44;;;;;;;9.20;8.20;;;;;;;;;;5073123;28;20486;-68
2022/08/20 06:04:26;;;;;;;10.88;7.40;;;;;;;;;;5073115;28;20024;-67
2022/08/20 06:07:00;;;;;;;9.65;7.38;;;;;;;;;;5073004;28;20028;-68
2022/08/20 06:09:26;;;;;;;8.88;6.78;;;;;;;;;;5072926;28;20028;-68
2022/08/20 06:11:52;;;;;;;7.43;6.63;;;;;;;;;;5072967;28;20077;-68
2022/08/20 06:14:17;;;;;;;11.60;7.03;;;;;;;;;;5072636;28;20059;-67
2022/08/20 06:16:43;;;;;;;8.60;6.93;;;;;;;;;;5072805;28;20439;-68
2022/08/20 06:19:09;;;;;;;9.90;7.05;;;;;;;;;;5072929;28;20031;-68
2022/08/20 06:21:35;;;;;;;7.63;6.22;;;;;;;;;;5072796;28;20028;-68
2022/08/20 06:24:00;;;;;;;7.32;6.50;;;;;;;;;;5072735;28;20472;-68
2022/08/20 06:26:26;;;;;;;6.75;6.05;;;;;;;;;;5071306;28;20444;-67
2022/08/20 06:28:52;;;;;;;7.05;6.35;;;;;;;;;;5071239;28;20483;-68
2022/08/20 06:31:18;;;;;;;7.95;6.32;;;;;;;;;;5072633;28;20078;-67
2022/08/20 06:33:44;;;;;;;7.47;6.28;;;;;;;;;;5072480;28;20379;-68
2022/08/20 06:36:09;;;;;;;8.80;6.00;;;;;;;;;;5072695;28;20525;-68
2022/08/20 06:38:35;;;;;;;6.85;6.07;;;;;;;;;;5072804;28;20583;-68
2022/08/20 06:41:01;;;;;;;7.47;5.95;;;;;;;;;;5072144;28;20409;-68
2022/08/20 06:43:27;;;;;;;7.95;5.40;;;;;;;;;;5072594;28;20051;-68
2022/08/20 06:45:56;;;;;;;6.75;5.80;;;;;;;;;;5072504;28;20534;-68
2022/08/20 06:48:22;;;;;;;11.80;5.78;;;;;;;;;;5072511;28;20040;-68
2022/08/20 06:50:47;;;;;;;6.85;5.22;;;;;;;;;;5073495;28;20017;-67
2022/08/20 06:53:16;;;;;;;5.97;5.03;;;;;;;;;;5076436;28;20037;-68
2022/08/20 06:55:47;;;;;;;6.57;4.90;;;;;;;;;;5076291;28;20032;-67
2022/08/20 06:58:13;;;;;;;6.30;5.40;;;;;;;;;;5076473;28;20071;-68
2022/08/20 07:00:41;;;;;;;7.05;4.40;;;;;;;;;;5076458;28;20061;-68
2022/08/20 07:03:07;;;;;;;7.32;4.50;;;;;;;;;;5076428;28;20042;-67
2022/08/20 07:05:35;;;;;;;4.88;4.38;;;;;;;;;;5076392;28;20443;-68
2022/08/20 07:08:02;;;;;;;5.63;4.13;;;;;;;;;;5076343;28;20025;-68
2022/08/20 07:10:29;;;;;;;5.35;4.60;;;;;;;;;;5076086;28;20025;-67
2022/08/20 07:12:54;;;;;;;4.63;3.88;;;;;;;;;;5076165;28;20494;-67
2022/08/20 07:15:22;;;;;;;5.38;4.00;;;;;;;;;;5076208;28;20025;-68
2022/08/20 07:17:50;;;;;;;6.80;4.47;;;;;;;;;;5076035;28;20059;-67
2022/08/20 07:20:15;;;;;;;5.50;4.80;;;;;;;;;;5076016;28;20357;-67
2022/08/20 07:22:42;;;;;;;4.40;4.00;;;;;;;;;;5076028;28;20035;-67
2022/08/20 07:25:10;;;;;;;4.57;3.80;;;;;;;;;;5075632;28;20032;-68
2022/08/20 07:27:36;;;;;;;6.03;3.88;;;;;;;;;;5075867;28;20025;-68
2022/08/20 07:32:48;;;;;;;6.63;3.33;;;;;;;;;;5076005;28;20035;-68
2022/08/20 07:35:16;;;;;;;3.95;3.53;;;;;;;;;;5075672;28;20032;-68
2022/08/20 07:37:47;;;;;;;4.43;3.00;;;;;;;;;;5075737;28;20024;-66
2022/08/20 07:40:19;;;;;;;3.80;3.20;;;;;;;;;;5075506;28;20029;-67
2022/08/20 07:42:47;;;;;;;3.70;3.03;;;;;;;;;;5075544;28;20074;-67
2022/08/20 07:45:14;;;;;;;4.72;3.28;;;;;;;;;;5075607;28;20082;-67
2022/08/20 07:47:41;;;;;;;4.47;4.05;;;;;;;;;;5075409;28;20472;-68
2022/08/20 07:50:09;;;;;;;3.85;3.45;;;;;;;;;;5075524;28;20459;-68
2022/08/20 07:52:35;;;;;;;4.93;3.30;;;;;;;;;;5075368;28;20056;-67
2022/08/20 07:55:10;;;;;;;4.18;3.15;;;;;;;;;;5075210;28;20429;-67
2022/08/20 07:57:37;;;;;;;4.45;3.72;;;;;;;;;;5075290;28;20029;-68
2022/08/20 08:00:07;;;;;;;4.35;3.95;;;;;;;;;;5075505;28;20040;-67
2022/08/20 08:02:34;;;;;;;5.40;3.85;;;;;;;;;;5074900;28;20023;-66
2022/08/20 08:05:00;;;;;;;6.10;4.32;;;;;;;;;;5075052;28;20029;-68
2022/08/20 08:07:26;;;;;;;4.60;4.07;;;;;;;;;;5075112;28;20061;-68
2022/08/20 08:09:53;;;;;;;5.07;4.57;;;;;;;;;;5074933;28;20047;-68
2022/08/20 08:12:20;;;;;;;8.52;4.22;;;;;;;;;;5075136;28;20016;-67
2022/08/20 08:14:46;;;;;;;7.10;4.68;;;;;;;;;;5074946;28;20090;-68
2022/08/20 08:17:13;;;;;;;7.57;5.30;;;;;;;;;;5075030;28;20024;-67
2022/08/20 08:19:44;;;;;;;5.10;4.32;;;;;;;;;;5075030;28;20021;-67
2022/08/20 08:22:14;;;;;;;4.93;4.45;;;;;;;;;;5074914;28;20031;-66
2022/08/20 08:24:40;;;;;;;6.25;4.57;;;;;;;;;;5074370;28;20107;-68
2022/08/20 08:27:07;;;;;;;4.75;4.28;;;;;;;;;;5074745;28;20034;-67
2022/08/20 08:29:34;;;;;;;5.57;4.50;;;;;;;;;;5074639;28;20499;-67
2022/08/20 08:32:01;;;;;;;6.45;5.05;;;;;;;;;;5074774;28;20473;-67
2022/08/20 08:34:26;;;;;;;5.00;4.45;;;;;;;;;;5074430;28;20115;-66
2022/08/20 08:36:52;;;;;;;5.22;4.53;;;;;;;;;;5074571;28;20135;-67
2022/08/20 08:39:18;;;;;;;5.28;4.78;;;;;;;;;;5074094;28;20669;-67
2022/08/20 08:41:50;;;;;;;4.32;3.92;;;;;;;;;;5074360;28;20028;-67
2022/08/20 08:44:23;;;;;;;4.63;4.22;;;;;;;;;;5074338;28;20058;-67
2022/08/20 08:46:57;;;;;;;4.35;3.90;;;;;;;;;;5074435;28;20049;-67
2022/08/20 08:49:27;;;;;;;6.97;3.78;;;;;;;;;;5074430;28;20095;-67
2022/08/20 08:52:04;;;;;;;5.43;4.00;;;;;;;;;;5073983;28;20075;-68
2022/08/20 08:54:32;;;;;;;4.28;3.88;;;;;;;;;;5074184;28;20032;-67
2022/08/20 08:56:59;;;;;;;4.90;4.40;;;;;;;;;;5074120;28;20047;-66
2022/08/20 08:59:27;;;;;;;4.68;4.28;;;;;;;;;;5072854;28;20407;-67
2022/08/20 09:01:56;;;;;;;5.72;4.40;;;;;;;;;;5071241;28;20594;-66
2022/08/20 09:04:30;;;;;;;5.45;4.40;;;;;;;;;;5073529;28;20453;-68
2022/08/20 09:06:56;;;;;;;6.30;5.40;;;;;;;;;;5073481;28;20420;-68
2022/08/20 09:09:26;;;;;;;5.45;4.80;;;;;;;;;;5073904;28;20035;-66
2022/08/20 09:11:55;;;;;;;5.30;4.80;;;;;;;;;;5073713;28;20050;-67
2022/08/20 09:14:23;;;;;;;6.22;5.53;;;;;;;;;;5072903;28;20056;-67
2022/08/20 09:16:49;;;;;;;7.70;5.05;;;;;;;;;;5073753;28;20030;-68
2022/08/20 09:19:15;;;;;;;6.50;5.70;;;;;;;;;;5073662;28;20039;-67
2022/08/20 09:21:40;;;;;;;7.88;6.47;;;;;;;;;;5073366;28;20460;-66
2022/08/20 09:24:06;;;;;;;7.03;6.10;;;;;;;;;;5073538;28;20039;-67
2022/08/20 09:26:32;;;;;;;7.97;7.18;;;;;;;;;;5073410;28;20020;-67
2022/08/20 09:28:57;;;;;;;7.55;6.75;;;;;;;;;;5073440;28;20459;-67
2022/08/20 09:31:23;;;;;;;6.95;6.35;;;;;;;;;;5073544;28;20055;-67
2022/08/20 09:33:50;;;;;;;10.50;7.95;;;;;;;;;;5073267;28;20031;-66
2022/08/20 09:36:15;;;;;;;8.95;8.05;;;;;;;;;;5073216;28;20021;-67
2022/08/20 09:38:41;;;;;;;8.77;7.63;;;;;;;;;;5073476;28;20490;-67
2022/08/20 09:41:06;;;;;;;10.18;7.53;;;;;;;;;;5072357;28;20036;-67
2022/08/20 09:43:32;;;;;;;7.82;6.72;;;;;;;;;;5073183;28;20103;-67
2022/08/20 09:45:57;;;;;;;8.63;7.72;;;;;;;;;;5072937;28;20024;-66
2022/08/20 09:48:23;;;;;;;8.25;7.13;;;;;;;;;;5073107;28;20466;-67
2022/08/20 09:50:49;;;;;;;10.18;7.85;;;;;;;;;;5072874;28;20025;-67
2022/08/20 09:53:16;;;;;;;11.55;8.02;;;;;;;;;;5072772;28;20491;-67
2022/08/20 09:55:44;;;;;;;10.55;8.85;;;;;;;;;;5072830;28;20031;-67
2022/08/20 09:58:37;;;;;;;9.55;8.43;;;;;;;;;;5073018;28;20027;-68
2022/08/20 10:01:14;;;;;;;11.23;9.38;;;;;;;;;;5072925;28;20529;-68
2022/08/20 10:03:43;;;;;;;10.45;8.27;;;;;;;;;;5072811;28;20043;-69
2022/08/20 10:06:10;;;;;;;11.43;9.93;;;;;;;;;;5072466;28;20032;-68
2022/08/20 10:08:36;;;;;;;13.75;10.95;;;;;;;;;;5072892;28;20032;-67
2022/08/20 10:11:02;;;;;;;14.13;11.38;;;;;;;;;;5072919;28;20138;-68
2022/08/20 10:13:27;;;;;;;12.60;9.75;;;;;;;;;;5072777;28;20061;-68
2022/08/20 10:15:53;;;;;;;11.93;10.00;;;;;;;;;;5072555;28;20430;-68
2022/08/20 10:18:18;;;;;;;12.90;11.43;;;;;;;;;;5072683;28;20028;-68
2022/08/20 10:20:44;;;;;;;14.27;11.27;;;;;;;;;;5072449;28;20020;-68
2022/08/20 10:23:09;;;;;;;13.10;11.32;;;;;;;;;;5072760;28;20468;-68
2022/08/20 10:25:35;;;;;;;13.88;10.57;;;;;;;;;;5072241;28;20081;-67
2022/08/20 10:28:01;;;;;;;13.75;11.70;;;;;;;;;;5072423;28;20039;-67
2022/08/20 10:30:26;;;;;;;14.30;11.35;;;;;;;;;;5068123;28;20032;-67
2022/08/20 10:32:52;;;;;;;12.30;11.10;;;;;;;;;;5072557;28;20025;-66
2022/08/20 10:35:18;;;;;;;14.25;12.40;;;;;;;;;;5071582;28;20530;-67
2022/08/20 10:37:44;;;;;;;18.38;13.02;;;;;;;;;;5072364;28;20029;-67
2022/08/20 10:40:10;;;;;;;16.10;13.75;;;;;;;;;;5072237;28;20056;-68
2022/08/20 10:42:36;;;;;;;16.85;13.40;;;;;;;;;;5071590;28;20043;-68
2022/08/20 10:45:01;;;;;;;16.88;13.90;;;;;;;;;;5072570;28;20033;-68
2022/08/20 10:47:30;;;;;;;13.32;11.95;;;;;;;;;;5072208;28;20024;-67
2022/08/20 10:49:57;;;;;;;15.10;13.50;;;;;;;;;;5072393;28;20395;-67
2022/08/20 10:52:24;;;;;;;16.90;13.93;;;;;;;;;;5072300;28;20067;-67
2022/08/20 10:54:50;;;;;;;16.10;14.45;;;;;;;;;;5072324;28;20032;-68
2022/08/20 10:57:21;;;;;;;15.65;13.93;;;;;;;;;;5072356;28;20109;-68
2022/08/20 10:59:48;;;;;;;13.48;11.20;;;;;;;;;;5072119;28;20107;-67
2022/08/20 11:02:14;;;;;;;16.13;13.75;;;;;;;;;;5071917;28;20137;-67
2022/08/20 11:04:40;;;;;;;20.13;14.40;;;;;;;;;;5072112;28;20370;-67
2022/08/20 11:07:23;;;;;;;13.70;12.30;;;;;;;;;;5072238;28;20099;-68
2022/08/20 11:09:49;;;;;;;15.32;13.63;;;;;;;;;;5071941;28;20500;-69
2022/08/20 11:12:16;;;;;;;16.13;12.50;;;;;;;;;;5072296;28;20032;-69
2022/08/20 11:14:42;;;;;;;15.13;13.45;;;;;;;;;;5071244;28;20036;-68
2022/08/20 11:17:08;;;;;;;13.85;12.07;;;;;;;;;;5071765;28;20463;-69
2022/08/20 11:19:43;;;;;;;17.20;14.10;;;;;;;;;;5072056;28;20029;-68
2022/08/20 11:22:09;;;;;;;15.77;14.07;;;;;;;;;;5072130;28;20025;-69
2022/08/20 11:24:35;;;;;;;17.35;15.20;;;;;;;;;;5072166;28;20078;-68
2022/08/20 11:27:01;;;;;;;20.90;16.67;;;;;;;;;;5071803;28;20028;-69
2022/08/20 11:29:27;;;;;;;17.45;14.10;;;;;;;;;;5072108;28;20021;-69
2022/08/20 11:31:52;;;;;;;17.02;15.18;;;;;;;;;;5071848;28;20433;-68
2022/08/20 11:34:18;;;;;;;17.15;14.18;;;;;;;;;;5071934;28;20036;-68
2022/08/20 11:36:45;;;;;;;19.38;15.90;;;;;;;;;;5072689;28;20069;-68
2022/08/20 11:39:11;;;;;;;19.83;15.68;;;;;;;;;;5075654;28;20100;-68
2022/08/20 11:41:36;;;;;;;16.25;12.48;;;;;;;;;;5075272;28;20074;-69
2022/08/20 11:44:02;;;;;;;18.45;14.05;;;;;;;;;;5075602;28;20020;-68
2022/08/20 11:46:28;;;;;;;18.25;15.55;;;;;;;;;;5075181;28;20063;-68
2022/08/20 11:48:53;;;;;;;19.58;16.17;;;;;;;;;;5075206;28;20428;-67
2022/08/20 11:51:18;;;;;;;19.05;14.65;;;;;;;;;;5074954;28;20379;-67
2022/08/20 11:53:44;;;;;;;16.98;15.18;;;;;;;;;;5075177;28;20061;-67
2022/08/20 11:56:12;;;;;;;18.55;16.05;;;;;;;;;;5075286;28;20095;-67
2022/08/20 11:58:37;;;;;;;26.77;17.88;;;;;;;;;;5075254;28;20028;-67
2022/08/20 12:01:03;;;;;;;54.22;22.80;;;;;;;;;;5075084;28;20024;-67
2022/08/20 12:03:29;;;;;;;62.67;25.40;;;;;;;;;;5075196;28;20032;-67
2022/08/20 12:05:56;;;;;;;31.80;19.65;;;;;;;;;;5075103;28;20028;-67
2022/08/20 12:08:22;;;;;;;30.83;20.55;;;;;;;;;;5075255;28;20029;-66
2022/08/20 12:10:47;;;;;;;54.25;25.60;;;;;;;;;;5075116;28;20039;-67
2022/08/20 12:13:13;;;;;;;61.17;24.85;;;;;;;;;;5074791;28;20127;-67
2022/08/20 12:15:38;;;;;;;143.82;36.58;;;;;;;;;;5074931;28;20442;-66
2022/08/20 12:18:07;;;;;;;328.30;68.90;;;;;;;;;;5074992;28;20031;-66
2022/08/20 12:20:33;;;;;;;90.10;31.27;;;;;;;;;;5074470;28;20032;-66
2022/08/20 12:22:58;;;;;;;48.05;24.60;;;;;;;;;;5073634;28;20020;-66
2022/08/20 12:25:24;;;;;;;24.27;19.52;;;;;;;;;;5074822;28;20475;-67
2022/08/20 12:27:50;;;;;;;34.85;21.48;;;;;;;;;;5074721;28;20031;-65
2022/08/20 12:30:19;;;;;;;57.55;25.38;;;;;;;;;;5074515;28;20467;-66
2022/08/20 12:32:45;;;;;;;81.50;29.80;;;;;;;;;;5074797;28;20078;-65
2022/08/20 12:35:12;;;;;;;28.23;19.95;;;;;;;;;;5073180;28;20033;-66
2022/08/20 12:37:38;;;;;;;35.25;21.17;;;;;;;;;;5072768;28;20028;-65
2022/08/20 12:40:07;;;;;;;29.90;19.60;;;;;;;;;;5072800;28;20028;-66
2022/08/20 12:42:33;;;;;;;29.42;19.65;;;;;;;;;;5072694;28;20028;-66
2022/08/20 12:44:59;;;;;;;28.13;19.33;;;;;;;;;;5073208;28;20086;-65
2022/08/20 12:47:28;;;;;;;22.25;18.60;;;;;;;;;;5073477;28;20024;-65
2022/08/20 12:49:59;;;;;;;24.58;17.42;;;;;;;;;;5074002;28;20033;-65
2022/08/20 12:52:26;;;;;;;20.35;17.52;;;;;;;;;;5074245;28;20045;-66
2022/08/20 12:54:53;;;;;;;23.08;17.98;;;;;;;;;;5074311;28;20028;-66
2022/08/20 12:57:30;;;;;;;21.60;16.10;;;;;;;;;;5074324;28;20020;-66
2022/08/20 12:59:57;;;;;;;22.80;16.52;;;;;;;;;;5073082;28;20056;-66
2022/08/20 13:02:23;;;;;;;21.98;17.85;;;;;;;;;;5074364;28;20056;-68
2022/08/20 13:04:49;;;;;;;17.80;15.50;;;;;;;;;;5074159;28;20024;-68
2022/08/20 13:07:15;;;;;;;19.17;14.95;;;;;;;;;;5074185;28;20445;-67
2022/08/20 13:09:41;;;;;;;15.52;13.90;;;;;;;;;;5073873;28;20464;-67
2022/08/20 13:12:09;;;;;;;15.77;13.90;;;;;;;;;;5074042;28;20466;-67
2022/08/20 13:14:35;;;;;;;17.55;14.65;;;;;;;;;;5073617;28;20069;-67
2022/08/20 13:17:01;;;;;;;14.73;12.98;;;;;;;;;;5073843;28;20029;-67
2022/08/20 13:19:29;;;;;;;19.13;13.38;;;;;;;;;;5073926;28;20052;-67
2022/08/20 13:21:55;;;;;;;16.63;14.07;;;;;;;;;;5073901;28;20024;-67
2022/08/20 13:24:21;;;;;;;15.85;13.20;;;;;;;;;;5073819;28;20429;-67
2022/08/20 13:26:47;;;;;;;15.68;13.18;;;;;;;;;;5073724;28;20356;-67
2022/08/20 13:29:13;;;;;;;14.32;12.73;;;;;;;;;;5073604;28;20467;-67
2022/08/20 13:31:39;;;;;;;17.10;11.93;;;;;;;;;;5073663;28;20032;-67
2022/08/20 13:34:05;;;;;;;12.90;10.75;;;;;;;;;;5073623;28;20029;-67
2022/08/20 13:36:31;;;;;;;16.60;12.45;;;;;;;;;;5073341;28;20498;-67
2022/08/20 13:38:56;;;;;;;13.63;12.00;;;;;;;;;;5073560;28;20024;-67
2022/08/20 13:41:22;;;;;;;12.65;10.80;;;;;;;;;;5073214;28;20074;-67
2022/08/20 13:43:47;;;;;;;11.98;10.73;;;;;;;;;;5073267;28;20031;-67
2022/08/20 13:46:13;;;;;;;13.27;10.75;;;;;;;;;;5073095;28;20031;-67
2022/08/20 13:48:38;;;;;;;13.13;9.93;;;;;;;;;;5073456;28;20529;-67
2022/08/20 13:51:05;;;;;;;12.02;10.25;;;;;;;;;;5073372;28;20463;-67
2022/08/20 13:53:30;;;;;;;11.02;9.05;;;;;;;;;;5073102;28;20511;-67
2022/08/20 13:55:56;;;;;;;11.02;9.90;;;;;;;;;;5072906;28;20116;-67
2022/08/20 13:58:23;;;;;;;13.60;10.45;;;;;;;;;;5073162;28;20501;-67
2022/08/20 14:00:49;;;;;;;12.93;10.15;;;;;;;;;;5072714;28;20103;-67
2022/08/20 14:03:15;;;;;;;14.48;10.73;;;;;;;;;;5073138;28;20020;-67
2022/08/20 14:05:41;;;;;;;13.88;10.25;;;;;;;;;;5072832;28;20475;-67
2022/08/20 14:08:17;;;;;;;10.20;8.35;;;;;;;;;;5072961;28;20486;-68
2022/08/20 14:10:43;;;;;;;10.02;9.00;;;;;;;;;;5072818;28;20440;-67
2022/08/20 14:13:09;;;;;;;11.88;9.95;;;;;;;;;;5073018;28;20021;-67
2022/08/20 14:15:36;;;;;;;10.93;9.52;;;;;;;;;;5071584;28;20047;-66
2022/08/20 14:18:01;;;;;;;13.52;9.68;;;;;;;;;;5072950;28;20387;-66
2022/08/20 14:20:30;;;;;;;12.23;9.77;;;;;;;;;;5073009;28;20024;-67
2022/08/20 14:22:56;;;;;;;12.82;9.85;;;;;;;;;;5072808;28;20420;-67
2022/08/20 14:25:23;;;;;;;11.27;10.05;;;;;;;;;;5072619;28;20036;-67
2022/08/20 14:27:49;;;;;;;13.60;9.82;;;;;;;;;;5072706;28;20502;-67
2022/08/20 14:30:22;;;;;;;11.63;10.43;;;;;;;;;;5072764;28;20107;-67
2022/08/20 14:32:48;;;;;;;13.48;10.18;;;;;;;;;;5072727;28;20029;-67
2022/08/20 14:35:14;;;;;;;13.32;9.15;;;;;;;;;;5072656;28;20028;-67